sensor_id;sensor_type;location;lat;lon;timestamp;pressure;altitude;pressure_sealevel;temperature;humidity
12203;BME280;6164;42.178;24.622;2023-04-05T00:01:45;98979.22;;;5.50;100.00
12203;BME280;6164;42.178;24.622;2023-04-05T00:04:14;98981.22;;;5.56;100.00
12203;BME280;6164;42.178;24.622;2023-04-05T00:06:44;98976.28;;;5.53;100.00
12203;BME280;6164;42.178;24.622;2023-04-05T00:09:11;98981.66;;;5.51;100.00
12203;BME280;6164;42.178;24.622;2023-04-05T00:11:38;98978.22;;;5.51;100.00
12203;BME280;6164;42.178;24.622;2023-04-05T00:14:04;98979.50;;;5.47;100.00
12203;BME280;6164;42.178;24.622;2023-04-05T00:16:32;98979.00;;;5.43;100.00
12203;BME280;6164;42.178;24.622;2023-04-05T00:19:00;98988.16;;;5.47;100.00
12203;BME280;6164;42.178;24.622;2023-04-05T00:21:26;98993.03;;;5.42;100.00
12203;BME280;6164;42.178;24.622;2023-04-05T00:23:53;98986.16;;;5.41;100.00
12203;BME280;6164;42.178;24.622;2023-04-05T00:26:21;98989.47;;;5.43;100.00
12203;BME280;6164;42.178;24.622;2023-04-05T00:28:47;98997.09;;;5.36;100.00
12203;BME280;6164;42.178;24.622;2023-04-05T00:31:14;98988.25;;;5.37;100.00
12203;BME280;6164;42.178;24.622;2023-04-05T00:33:42;98992.44;;;5.30;100.00
12203;BME280;6164;42.178;24.622;2023-04-05T00:36:09;98998.19;;;5.34;100.00
12203;BME280;6164;42.178;24.622;2023-04-05T00:38:35;98992.44;;;5.30;100.00
12203;BME280;6164;42.178;24.622;2023-04-05T00:41:02;98992.97;;;5.34;100.00
12203;BME280;6164;42.178;24.622;2023-04-05T00:43:28;98997.53;;;5.32;100.00
12203;BME280;6164;42.178;24.622;2023-04-05T00:45:55;98998.72;;;5.37;100.00
12203;BME280;6164;42.178;24.622;2023-04-05T00:48:22;99003.13;;;5.37;100.00
12203;BME280;6164;42.178;24.622;2023-04-05T00:50:50;98993.50;;;5.37;100.00
12203;BME280;6164;42.178;24.622;2023-04-05T00:53:17;98999.88;;;5.35;100.00
12203;BME280;6164;42.178;24.622;2023-04-05T00:55:44;98991.84;;;5.36;100.00
12203;BME280;6164;42.178;24.622;2023-04-05T00:58:11;98996.25;;;5.36;100.00
12203;BME280;6164;42.178;24.622;2023-04-05T01:00:37;98999.72;;;5.36;100.00
12203;BME280;6164;42.178;24.622;2023-04-05T01:03:05;98992.16;;;5.33;100.00
12203;BME280;6164;42.178;24.622;2023-04-05T01:05:34;98994.78;;;5.33;100.00
12203;BME280;6164;42.178;24.622;2023-04-05T01:08:06;98997.03;;;5.28;100.00
12203;BME280;6164;42.178;24.622;2023-04-05T01:10:34;98994.69;;;5.25;100.00
12203;BME280;6164;42.178;24.622;2023-04-05T01:13:03;98992.81;;;5.18;100.00
12203;BME280;6164;42.178;24.622;2023-04-05T01:15:29;98995.06;;;5.13;100.00
12203;BME280;6164;42.178;24.622;2023-04-05T01:17:57;98999.03;;;5.17;100.00
12203;BME280;6164;42.178;24.622;2023-04-05T01:20:26;99001.66;;;5.17;100.00
12203;BME280;6164;42.178;24.622;2023-04-05T01:23:06;98997.22;;;5.17;100.00
12203;BME280;6164;42.178;24.622;2023-04-05T01:28:37;99010.44;;;5.16;100.00
12203;BME280;6164;42.178;24.622;2023-04-05T01:31:09;99000.50;;;5.19;100.00
12203;BME280;6164;42.178;24.622;2023-04-05T01:33:40;99001.50;;;5.18;100.00
12203;BME280;6164;42.178;24.622;2023-04-05T01:36:12;99000.00;;;5.16;100.00
12203;BME280;6164;42.178;24.622;2023-04-05T01:38:41;99007.59;;;5.09;100.00
12203;BME280;6164;42.178;24.622;2023-04-05T01:41:10;99005.81;;;5.10;100.00
12203;BME280;6164;42.178;24.622;2023-04-05T01:43:36;99015.31;;;5.11;100.00
12203;BME280;6164;42.178;24.622;2023-04-05T01:46:03;99015.31;;;5.11;100.00
12203;BME280;6164;42.178;24.622;2023-04-05T01:48:31;99015.31;;;5.11;100.00
12203;BME280;6164;42.178;24.622;2023-04-05T01:50:58;99014.19;;;5.13;100.00
12203;BME280;6164;42.178;24.622;2023-04-05T01:53:24;99012.53;;;5.12;100.00
12203;BME280;6164;42.178;24.622;2023-04-05T01:55:51;99023.69;;;5.14;100.00
12203;BME280;6164;42.178;24.622;2023-04-05T01:58:17;99022.72;;;5.15;100.00
12203;BME280;6164;42.178;24.622;2023-04-05T02:00:44;99032.44;;;5.23;100.00
12203;BME280;6164;42.178;24.622;2023-04-05T02:03:10;99031.91;;;5.19;100.00
12203;BME280;6164;42.178;24.622;2023-04-05T02:05:38;99038.34;;;5.25;100.00
12203;BME280;6164;42.178;24.622;2023-04-05T02:08:05;99035.28;;;5.29;100.00
12203;BME280;6164;42.178;24.622;2023-04-05T02:10:31;99032.97;;;5.26;100.00
12203;BME280;6164;42.178;24.622;2023-04-05T02:12:58;99034.22;;;5.22;100.00
12203;BME280;6164;42.178;24.622;2023-04-05T02:15:24;99025.84;;;5.19;100.00
12203;BME280;6164;42.178;24.622;2023-04-05T02:17:51;99028.34;;;5.20;100.00
12203;BME280;6164;42.178;24.622;2023-04-05T02:20:18;99035.38;;;5.20;100.00
12203;BME280;6164;42.178;24.622;2023-04-05T02:22:46;99028.13;;;5.14;100.00
12203;BME280;6164;42.178;24.622;2023-04-05T02:25:12;99034.06;;;5.06;100.00
12203;BME280;6164;42.178;24.622;2023-04-05T02:27:39;99035.75;;;4.98;100.00
12203;BME280;6164;42.178;24.622;2023-04-05T02:30:06;99036.75;;;4.97;100.00
12203;BME280;6164;42.178;24.622;2023-04-05T02:32:32;99038.53;;;4.96;100.00
12203;BME280;6164;42.178;24.622;2023-04-05T02:34:59;99050.28;;;4.92;100.00
12203;BME280;6164;42.178;24.622;2023-04-05T02:37:25;99044.75;;;4.95;100.00
12203;BME280;6164;42.178;24.622;2023-04-05T02:39:53;99051.38;;;4.90;100.00
12203;BME280;6164;42.178;24.622;2023-04-05T02:42:20;99052.19;;;4.90;100.00
12203;BME280;6164;42.178;24.622;2023-04-05T02:44:46;99048.91;;;4.88;100.00
12203;BME280;6164;42.178;24.622;2023-04-05T02:47:12;99053.59;;;4.85;100.00
12203;BME280;6164;42.178;24.622;2023-04-05T02:49:45;99047.81;;;4.81;100.00
12203;BME280;6164;42.178;24.622;2023-04-05T02:52:11;99053.34;;;4.78;100.00
12203;BME280;6164;42.178;24.622;2023-04-05T02:54:38;99040.88;;;4.72;100.00
12203;BME280;6164;42.178;24.622;2023-04-05T02:57:06;99051.63;;;4.69;100.00
12203;BME280;6164;42.178;24.622;2023-04-05T02:59:35;99039.66;;;4.67;100.00
12203;BME280;6164;42.178;24.622;2023-04-05T03:02:02;99046.81;;;4.65;100.00
12203;BME280;6164;42.178;24.622;2023-04-05T03:04:28;99048.75;;;4.63;100.00
12203;BME280;6164;42.178;24.622;2023-04-05T03:06:58;99052.03;;;4.65;100.00
12203;BME280;6164;42.178;24.622;2023-04-05T03:09:27;99051.09;;;4.66;100.00
12203;BME280;6164;42.178;24.622;2023-04-05T03:11:57;99046.53;;;4.68;100.00
12203;BME280;6164;42.178;24.622;2023-04-05T03:14:25;99057.00;;;4.68;100.00
12203;BME280;6164;42.178;24.622;2023-04-05T03:16:51;99057.78;;;4.68;100.00
12203;BME280;6164;42.178;24.622;2023-04-05T03:19:18;99056.16;;;4.67;100.00
12203;BME280;6164;42.178;24.622;2023-04-05T03:21:46;99061.94;;;4.71;100.00
12203;BME280;6164;42.178;24.622;2023-04-05T03:24:13;99059.31;;;4.71;100.00
12203;BME280;6164;42.178;24.622;2023-04-05T03:26:40;99075.94;;;4.70;100.00
12203;BME280;6164;42.178;24.622;2023-04-05T03:29:06;99065.34;;;4.71;100.00
12203;BME280;6164;42.178;24.622;2023-04-05T03:31:37;99068.78;;;4.72;100.00
12203;BME280;6164;42.178;24.622;2023-04-05T03:34:04;99060.81;;;4.73;100.00
12203;BME280;6164;42.178;24.622;2023-04-05T03:36:30;99068.66;;;4.73;100.00
12203;BME280;6164;42.178;24.622;2023-04-05T03:39:05;99062.72;;;4.71;100.00
12203;BME280;6164;42.178;24.622;2023-04-05T03:41:32;99068.66;;;4.73;100.00
12203;BME280;6164;42.178;24.622;2023-04-05T03:43:58;99064.84;;;4.68;100.00
12203;BME280;6164;42.178;24.622;2023-04-05T03:46:25;99065.09;;;4.65;100.00
12203;BME280;6164;42.178;24.622;2023-04-05T03:48:53;99074.75;;;4.64;100.00
12203;BME280;6164;42.178;24.622;2023-04-05T03:51:19;99068.28;;;4.59;100.00
12203;BME280;6164;42.178;24.622;2023-04-05T03:53:46;99075.00;;;4.61;100.00
12203;BME280;6164;42.178;24.622;2023-04-05T03:56:12;99082.84;;;4.61;100.00
12203;BME280;6164;42.178;24.622;2023-04-05T03:58:39;99085.63;;;4.60;100.00
12203;BME280;6164;42.178;24.622;2023-04-05T04:01:05;99082.84;;;4.61;100.00
12203;BME280;6164;42.178;24.622;2023-04-05T04:03:32;99104.91;;;4.59;100.00
12203;BME280;6164;42.178;24.622;2023-04-05T04:06:02;99096.63;;;4.63;100.00
12203;BME280;6164;42.178;24.622;2023-04-05T04:08:29;99093.06;;;4.64;100.00
12203;BME280;6164;42.178;24.622;2023-04-05T04:10:56;99093.84;;;4.65;100.00
12203;BME280;6164;42.178;24.622;2023-04-05T04:13:22;99093.19;;;4.63;100.00
12203;BME280;6164;42.178;24.622;2023-04-05T04:15:49;99094.84;;;4.64;100.00
12203;BME280;6164;42.178;24.622;2023-04-05T04:18:15;99103.91;;;4.60;100.00
12203;BME280;6164;42.178;24.622;2023-04-05T04:20:42;99102.13;;;4.60;100.00
12203;BME280;6164;42.178;24.622;2023-04-05T04:23:10;99101.31;;;4.60;100.00
12203;BME280;6164;42.178;24.622;2023-04-05T04:25:38;99107.66;;;4.57;100.00
12203;BME280;6164;42.178;24.622;2023-04-05T04:28:05;99114.38;;;4.60;100.00
12203;BME280;6164;42.178;24.622;2023-04-05T04:30:32;99110.81;;;4.61;100.00
12203;BME280;6164;42.178;24.622;2023-04-05T04:33:02;99120.97;;;4.64;100.00
12203;BME280;6164;42.178;24.622;2023-04-05T04:35:30;99112.16;;;4.65;100.00
12203;BME280;6164;42.178;24.622;2023-04-05T04:37:59;99124.69;;;4.61;100.00
12203;BME280;6164;42.178;24.622;2023-04-05T04:40:28;99124.28;;;4.66;100.00
12203;BME280;6164;42.178;24.622;2023-04-05T04:42:56;99122.63;;;4.65;100.00
12203;BME280;6164;42.178;24.622;2023-04-05T04:45:24;99136.38;;;4.67;100.00
12203;BME280;6164;42.178;24.622;2023-04-05T04:47:51;99133.47;;;4.70;100.00
12203;BME280;6164;42.178;24.622;2023-04-05T04:50:19;99129.91;;;4.71;100.00
12203;BME280;6164;42.178;24.622;2023-04-05T04:52:45;99149.56;;;4.75;100.00
12203;BME280;6164;42.178;24.622;2023-04-05T04:55:12;99144.47;;;4.73;100.00
12203;BME280;6164;42.178;24.622;2023-04-05T04:57:41;99134.69;;;4.75;100.00
12203;BME280;6164;42.178;24.622;2023-04-05T05:00:08;99147.34;;;4.80;100.00
12203;BME280;6164;42.178;24.622;2023-04-05T05:02:37;99147.75;;;4.85;100.00
12203;BME280;6164;42.178;24.622;2023-04-05T05:05:04;99143.88;;;4.89;100.00
12203;BME280;6164;42.178;24.622;2023-04-05T05:07:31;99154.50;;;4.87;100.00
12203;BME280;6164;42.178;24.622;2023-04-05T05:09:57;99146.06;;;4.93;100.00
12203;BME280;6164;42.178;24.622;2023-04-05T05:12:24;99145.91;;;4.95;100.00
12203;BME280;6164;42.178;24.622;2023-04-05T05:14:53;99155.13;;;4.99;100.00
12203;BME280;6164;42.178;24.622;2023-04-05T05:17:19;99146.31;;;5.00;100.00
12203;BME280;6164;42.178;24.622;2023-04-05T05:19:45;99155.53;;;4.94;100.00
12203;BME280;6164;42.178;24.622;2023-04-05T05:22:12;99163.00;;;4.89;100.00
12203;BME280;6164;42.178;24.622;2023-04-05T05:24:38;99163.81;;;4.90;100.00
12203;BME280;6164;42.178;24.622;2023-04-05T05:27:05;99170.84;;;4.89;100.00
12203;BME280;6164;42.178;24.622;2023-04-05T05:29:31;99172.50;;;4.90;100.00
12203;BME280;6164;42.178;24.622;2023-04-05T05:31:59;99162.44;;;4.95;100.00
12203;BME280;6164;42.178;24.622;2023-04-05T05:34:26;99172.75;;;4.97;100.00
12203;BME280;6164;42.178;24.622;2023-04-05T05:36:53;99162.78;;;5.10;100.00
12203;BME280;6164;42.178;24.622;2023-04-05T05:39:20;99165.22;;;5.21;100.00
12203;BME280;6164;42.178;24.622;2023-04-05T05:41:47;99172.50;;;5.27;99.43
12203;BME280;6164;42.178;24.622;2023-04-05T05:44:14;99168.84;;;5.37;99.66
12203;BME280;6164;42.178;24.622;2023-04-05T05:46:40;99160.69;;;5.40;98.63
12203;BME280;6164;42.178;24.622;2023-04-05T05:49:08;99167.47;;;5.43;98.00
12203;BME280;6164;42.178;24.622;2023-04-05T05:51:34;99171.16;;;5.50;99.36
12203;BME280;6164;42.178;24.622;2023-04-05T05:54:01;99171.53;;;5.55;97.67
12203;BME280;6164;42.178;24.622;2023-04-05T05:56:27;99175.19;;;5.62;97.24
12203;BME280;6164;42.178;24.622;2023-04-05T05:58:54;99168.84;;;5.65;97.51
12203;BME280;6164;42.178;24.622;2023-04-05T06:01:21;99160.91;;;5.74;97.62
12203;BME280;6164;42.178;24.622;2023-04-05T06:03:52;99165.47;;;5.72;95.83
12203;BME280;6164;42.178;24.622;2023-04-05T06:06:20;99165.72;;;5.79;95.74
12203;BME280;6164;42.178;24.622;2023-04-05T06:08:46;99169.78;;;5.91;95.62
12203;BME280;6164;42.178;24.622;2023-04-05T06:11:17;99169.25;;;5.87;94.22
12203;BME280;6164;42.178;24.622;2023-04-05T06:13:43;99175.03;;;5.91;93.91
12203;BME280;6164;42.178;24.622;2023-04-05T06:16:10;99178.72;;;5.98;93.99
12203;BME280;6164;42.178;24.622;2023-04-05T06:18:36;99180.81;;;5.94;92.95
12203;BME280;6164;42.178;24.622;2023-04-05T06:21:03;99182.75;;;5.92;93.88
12203;BME280;6164;42.178;24.622;2023-04-05T06:23:31;99185.59;;;5.99;93.24
12203;BME280;6164;42.178;24.622;2023-04-05T06:25:58;99184.56;;;6.09;92.15
12203;BME280;6164;42.178;24.622;2023-04-05T06:28:24;99184.94;;;6.14;91.52
12203;BME280;6164;42.178;24.622;2023-04-05T06:30:51;99180.19;;;6.18;92.08
12203;BME280;6164;42.178;24.622;2023-04-05T06:33:17;99182.91;;;6.26;92.20
12203;BME280;6164;42.178;24.622;2023-04-05T06:35:45;99176.75;;;6.35;90.98
12203;BME280;6164;42.178;24.622;2023-04-05T06:38:11;99181.00;;;6.36;90.16
12203;BME280;6164;42.178;24.622;2023-04-05T06:40:39;99193.66;;;6.40;89.23
12203;BME280;6164;42.178;24.622;2023-04-05T06:43:06;99193.28;;;6.53;90.22
12203;BME280;6164;42.178;24.622;2023-04-05T06:45:32;99194.41;;;6.50;89.27
12203;BME280;6164;42.178;24.622;2023-04-05T06:47:59;99202.72;;;6.63;90.28
12203;BME280;6164;42.178;24.622;2023-04-05T06:50:25;99206.00;;;6.48;87.83
12203;BME280;6164;42.178;24.622;2023-04-05T06:52:52;99208.16;;;6.52;87.20
12203;BME280;6164;42.178;24.622;2023-04-05T06:55:18;99215.53;;;6.49;87.74
12203;BME280;6164;42.178;24.622;2023-04-05T06:57:46;99218.00;;;6.50;87.25
12203;BME280;6164;42.178;24.622;2023-04-05T07:00:13;99211.63;;;6.53;87.44
12203;BME280;6164;42.178;24.622;2023-04-05T07:02:41;99232.22;;;6.48;87.07
12203;BME280;6164;42.178;24.622;2023-04-05T07:05:08;99217.78;;;6.44;87.11
12203;BME280;6164;42.178;24.622;2023-04-05T07:07:37;99215.91;;;6.36;86.10
12203;BME280;6164;42.178;24.622;2023-04-05T07:10:04;99216.28;;;6.41;86.92
12203;BME280;6164;42.178;24.622;2023-04-05T07:12:31;99232.31;;;6.38;86.54
12203;BME280;6164;42.178;24.622;2023-04-05T07:14:59;99229.69;;;6.38;86.08
12203;BME280;6164;42.178;24.622;2023-04-05T07:17:26;99233.72;;;6.33;85.66
12203;BME280;6164;42.178;24.622;2023-04-05T07:19:52;99245.59;;;6.37;86.06
12203;BME280;6164;42.178;24.622;2023-04-05T07:22:19;99237.56;;;6.38;86.60
12203;BME280;6164;42.178;24.622;2023-04-05T07:24:45;99249.09;;;6.45;86.47
12203;BME280;6164;42.178;24.622;2023-04-05T07:27:12;99243.94;;;6.53;86.82
12203;BME280;6164;42.178;24.622;2023-04-05T07:29:39;99237.59;;;6.64;87.38
12203;BME280;6164;42.178;24.622;2023-04-05T07:32:09;99240.53;;;6.61;85.97
12203;BME280;6164;42.178;24.622;2023-04-05T07:34:35;99243.22;;;6.69;85.96
12203;BME280;6164;42.178;24.622;2023-04-05T07:37:04;99232.78;;;6.77;86.32
12203;BME280;6164;42.178;24.622;2023-04-05T07:39:31;99249.25;;;6.87;86.43
12203;BME280;6164;42.178;24.622;2023-04-05T07:41:57;99257.69;;;6.99;86.45
12203;BME280;6164;42.178;24.622;2023-04-05T07:44:24;99260.31;;;6.99;85.01
12203;BME280;6164;42.178;24.622;2023-04-05T07:46:50;99258.91;;;7.04;84.41
12203;BME280;6164;42.178;24.622;2023-04-05T07:49:22;99252.88;;;7.12;83.49
12203;BME280;6164;42.178;24.622;2023-04-05T07:51:49;99272.53;;;7.08;82.35
12203;BME280;6164;42.178;24.622;2023-04-05T07:54:15;99266.78;;;7.04;84.34
12203;BME280;6164;42.178;24.622;2023-04-05T07:56:42;99270.38;;;7.03;82.35
12203;BME280;6164;42.178;24.622;2023-04-05T07:59:08;99272.81;;;6.97;82.90
12203;BME280;6164;42.178;24.622;2023-04-05T08:01:35;99258.19;;;7.20;85.40
12203;BME280;6164;42.178;24.622;2023-04-05T08:04:01;99266.28;;;7.26;83.36
12203;BME280;6164;42.178;24.622;2023-04-05T08:06:29;99273.50;;;7.32;83.39
12203;BME280;6164;42.178;24.622;2023-04-05T08:08:55;99268.94;;;7.34;83.11
12203;BME280;6164;42.178;24.622;2023-04-05T08:11:22;99262.06;;;7.41;83.62
12203;BME280;6164;42.178;24.622;2023-04-05T08:13:48;99272.19;;;7.62;83.10
12203;BME280;6164;42.178;24.622;2023-04-05T08:16:15;99265.31;;;7.61;82.11
12203;BME280;6164;42.178;24.622;2023-04-05T08:18:41;99273.25;;;7.77;82.39
12203;BME280;6164;42.178;24.622;2023-04-05T08:21:08;99271.59;;;7.76;82.84
12203;BME280;6164;42.178;24.622;2023-04-05T08:23:36;99267.16;;;7.76;82.56
12203;BME280;6164;42.178;24.622;2023-04-05T08:26:02;99271.69;;;8.00;82.81
12203;BME280;6164;42.178;24.622;2023-04-05T08:28:29;99276.75;;;7.93;80.67
12203;BME280;6164;42.178;24.622;2023-04-05T08:30:56;99280.94;;;8.12;80.38
12203;BME280;6164;42.178;24.622;2023-04-05T08:33:22;99283.88;;;8.17;80.15
12203;BME280;6164;42.178;24.622;2023-04-05T08:35:50;99288.41;;;8.33;82.07
12203;BME280;6164;42.178;24.622;2023-04-05T08:38:16;99288.97;;;8.11;81.44
12203;BME280;6164;42.178;24.622;2023-04-05T08:40:45;99289.25;;;7.99;80.89
12203;BME280;6164;42.178;24.622;2023-04-05T08:43:12;99295.34;;;8.00;79.77
12203;BME280;6164;42.178;24.622;2023-04-05T08:45:42;99284.72;;;8.18;81.10
12203;BME280;6164;42.178;24.622;2023-04-05T08:48:09;99292.38;;;8.37;79.98
12203;BME280;6164;42.178;24.622;2023-04-05T08:50:36;99301.13;;;8.69;79.84
12203;BME280;6164;42.178;24.622;2023-04-05T08:53:02;99303.25;;;8.90;78.07
12203;BME280;6164;42.178;24.622;2023-04-05T08:55:29;99315.63;;;8.89;77.06
12203;BME280;6164;42.178;24.622;2023-04-05T08:57:57;99320.22;;;8.71;75.71
12203;BME280;6164;42.178;24.622;2023-04-05T09:00:24;99318.72;;;8.93;76.03
12203;BME280;6164;42.178;24.622;2023-04-05T09:02:52;99313.63;;;8.75;74.73
12203;BME280;6164;42.178;24.622;2023-04-05T09:05:20;99296.50;;;8.63;76.15
12203;BME280;6164;42.178;24.622;2023-04-05T09:07:47;99305.72;;;8.75;76.30
12203;BME280;6164;42.178;24.622;2023-04-05T09:10:14;99315.56;;;8.65;75.40
12203;BME280;6164;42.178;24.622;2023-04-05T09:12:41;99322.50;;;8.74;76.17
12203;BME280;6164;42.178;24.622;2023-04-05T09:15:09;99314.94;;;8.79;75.79
12203;BME280;6164;42.178;24.622;2023-04-05T09:17:36;99324.47;;;8.72;75.20
12203;BME280;6164;42.178;24.622;2023-04-05T09:20:04;99322.34;;;8.68;74.76
12203;BME280;6164;42.178;24.622;2023-04-05T09:22:31;99319.22;;;8.80;76.42
12203;BME280;6164;42.178;24.622;2023-04-05T09:25:07;99319.53;;;8.85;76.02
12203;BME280;6164;42.178;24.622;2023-04-05T09:27:33;99325.09;;;8.58;74.85
12203;BME280;6164;42.178;24.622;2023-04-05T09:30:00;99329.72;;;8.48;74.90
12203;BME280;6164;42.178;24.622;2023-04-05T09:32:28;99334.63;;;8.35;74.73
12203;BME280;6164;42.178;24.622;2023-04-05T09:34:57;99326.72;;;8.35;76.18
12203;BME280;6164;42.178;24.622;2023-04-05T09:37:25;99324.72;;;8.29;75.82
12203;BME280;6164;42.178;24.622;2023-04-05T09:40:00;99321.25;;;8.29;75.19
12203;BME280;6164;42.178;24.622;2023-04-05T09:42:27;99325.25;;;8.49;76.39
12203;BME280;6164;42.178;24.622;2023-04-05T09:44:56;99328.69;;;8.33;75.16
12203;BME280;6164;42.178;24.622;2023-04-05T09:47:26;99329.72;;;8.48;76.42
12203;BME280;6164;42.178;24.622;2023-04-05T09:49:56;99317.34;;;8.41;75.27
12203;BME280;6164;42.178;24.622;2023-04-05T09:52:23;99314.41;;;8.52;75.57
12203;BME280;6164;42.178;24.622;2023-04-05T09:54:50;99323.63;;;8.56;73.51
12203;BME280;6164;42.178;24.622;2023-04-05T09:57:19;99326.59;;;8.69;73.64
12203;BME280;6164;42.178;24.622;2023-04-05T09:59:46;99335.34;;;8.77;74.13
12203;BME280;6164;42.178;24.622;2023-04-05T10:02:12;99332.19;;;8.50;73.71
12203;BME280;6164;42.178;24.622;2023-04-05T10:04:39;99318.03;;;8.51;74.50
12203;BME280;6164;42.178;24.622;2023-04-05T10:07:09;99316.41;;;8.66;75.72
12203;BME280;6164;42.178;24.622;2023-04-05T10:09:37;99316.25;;;8.59;74.29
12203;BME280;6164;42.178;24.622;2023-04-05T10:12:04;99330.84;;;8.54;73.03
12203;BME280;6164;42.178;24.622;2023-04-05T10:14:31;99336.28;;;8.52;71.61
12203;BME280;6164;42.178;24.622;2023-04-05T10:16:59;99329.22;;;8.53;71.73
12203;BME280;6164;42.178;24.622;2023-04-05T10:19:34;99329.81;;;8.39;72.38
12203;BME280;6164;42.178;24.622;2023-04-05T10:22:02;99307.84;;;8.48;74.16
12203;BME280;6164;42.178;24.622;2023-04-05T10:24:36;99302.75;;;8.54;74.79
12203;BME280;6164;42.178;24.622;2023-04-05T10:27:08;99313.78;;;8.66;75.60
12203;BME280;6164;42.178;24.622;2023-04-05T10:29:37;99323.78;;;8.54;73.47
12203;BME280;6164;42.178;24.622;2023-04-05T10:32:07;99329.91;;;8.71;73.78
12203;BME280;6164;42.178;24.622;2023-04-05T10:34:38;99338.91;;;8.52;72.81
12203;BME280;6164;42.178;24.622;2023-04-05T10:37:07;99316.91;;;8.53;74.56
12203;BME280;6164;42.178;24.622;2023-04-05T10:39:39;99329.06;;;8.54;74.16
12203;BME280;6164;42.178;24.622;2023-04-05T10:42:10;99348.22;;;8.31;71.71
12203;BME280;6164;42.178;24.622;2023-04-05T10:44:39;99329.31;;;8.27;72.29
12203;BME280;6164;42.178;24.622;2023-04-05T10:47:08;99353.06;;;8.18;71.88
12203;BME280;6164;42.178;24.622;2023-04-05T10:49:38;99338.50;;;8.23;72.25
12203;BME280;6164;42.178;24.622;2023-04-05T10:52:05;99314.53;;;8.34;73.60
12203;BME280;6164;42.178;24.622;2023-04-05T10:54:32;99342.06;;;8.22;71.75
12203;BME280;6164;42.178;24.622;2023-04-05T10:57:03;99329.97;;;8.29;71.94
12203;BME280;6164;42.178;24.622;2023-04-05T10:59:30;99339.03;;;8.35;71.52
12203;BME280;6164;42.178;24.622;2023-04-05T11:01:58;99327.22;;;8.47;73.01
12203;BME280;6164;42.178;24.622;2023-04-05T11:04:25;99342.22;;;8.54;71.65
12203;BME280;6164;42.178;24.622;2023-04-05T11:07:10;99336.63;;;8.65;73.16
12203;BME280;6164;42.178;24.622;2023-04-05T11:09:36;99340.53;;;8.45;71.26
12203;BME280;6164;42.178;24.622;2023-04-05T11:12:05;99336.06;;;8.30;71.61
12203;BME280;6164;42.178;24.622;2023-04-05T11:14:34;99334.19;;;8.22;72.81
12203;BME280;6164;42.178;24.622;2023-04-05T11:17:00;99321.13;;;8.30;74.42
12203;BME280;6164;42.178;24.622;2023-04-05T11:22:13;99332.03;;;8.18;72.69
12203;BME280;6164;42.178;24.622;2023-04-05T11:24:48;99324.19;;;8.26;72.58
12203;BME280;6164;42.178;24.622;2023-04-05T11:27:18;99351.66;;;8.23;72.08
12203;BME280;6164;42.178;24.622;2023-04-05T11:29:49;99335.50;;;8.18;71.72
12203;BME280;6164;42.178;24.622;2023-04-05T11:32:16;99343.72;;;8.15;72.69
12203;BME280;6164;42.178;24.622;2023-04-05T11:34:43;99331.22;;;8.17;73.62
12203;BME280;6164;42.178;24.622;2023-04-05T11:37:10;99332.19;;;8.16;73.29
12203;BME280;6164;42.178;24.622;2023-04-05T11:39:37;99337.28;;;8.10;72.54
12203;BME280;6164;42.178;24.622;2023-04-05T11:42:04;99340.09;;;8.16;72.49
12203;BME280;6164;42.178;24.622;2023-04-05T11:44:40;99335.66;;;8.17;71.88
12203;BME280;6164;42.178;24.622;2023-04-05T11:47:07;99351.88;;;8.04;71.30
12203;BME280;6164;42.178;24.622;2023-04-05T11:49:34;99352.00;;;7.94;71.14
12203;BME280;6164;42.178;24.622;2023-04-05T11:52:08;99336.06;;;7.96;72.54
12203;BME280;6164;42.178;24.622;2023-04-05T11:54:35;99355.47;;;8.03;72.47
12203;BME280;6164;42.178;24.622;2023-04-05T11:57:02;99347.88;;;7.92;71.93
12203;BME280;6164;42.178;24.622;2023-04-05T11:59:29;99346.03;;;7.84;72.59
12203;BME280;6164;42.178;24.622;2023-04-05T12:02:00;99329.69;;;7.98;74.77
12203;BME280;6164;42.178;24.622;2023-04-05T12:04:28;99344.13;;;8.02;74.19
12203;BME280;6164;42.178;24.622;2023-04-05T12:07:13;99331.00;;;8.02;76.20
12203;BME280;6164;42.178;24.622;2023-04-05T12:10:03;99347.63;;;8.11;75.21
12203;BME280;6164;42.178;24.622;2023-04-05T12:12:36;99345.31;;;8.08;72.84
12203;BME280;6164;42.178;24.622;2023-04-05T12:15:03;99339.06;;;8.09;73.69
12203;BME280;6164;42.178;24.622;2023-04-05T12:17:40;99340.56;;;8.12;73.81
12203;BME280;6164;42.178;24.622;2023-04-05T12:20:07;99347.13;;;8.16;72.21
12203;BME280;6164;42.178;24.622;2023-04-05T12:22:35;99372.13;;;8.12;72.04
12203;BME280;6164;42.178;24.622;2023-04-05T12:25:01;99348.25;;;7.97;72.61
12203;BME280;6164;42.178;24.622;2023-04-05T12:27:28;99341.34;;;8.04;73.71
12203;BME280;6164;42.178;24.622;2023-04-05T12:30:04;99339.38;;;8.06;72.97
12203;BME280;6164;42.178;24.622;2023-04-05T12:32:34;99342.81;;;7.98;72.21
12203;BME280;6164;42.178;24.622;2023-04-05T12:35:04;99336.25;;;8.02;73.33
12203;BME280;6164;42.178;24.622;2023-04-05T12:37:32;99328.44;;;8.19;75.83
12203;BME280;6164;42.178;24.622;2023-04-05T12:40:00;99336.00;;;8.22;74.73
12203;BME280;6164;42.178;24.622;2023-04-05T12:42:29;99329.91;;;8.21;75.01
12203;BME280;6164;42.178;24.622;2023-04-05T12:45:01;99342.00;;;8.32;75.06
12203;BME280;6164;42.178;24.622;2023-04-05T12:47:27;99345.25;;;8.26;72.53
12203;BME280;6164;42.178;24.622;2023-04-05T12:49:54;99343.44;;;8.26;72.51
12203;BME280;6164;42.178;24.622;2023-04-05T12:52:25;99351.28;;;8.18;73.13
12203;BME280;6164;42.178;24.622;2023-04-05T12:54:52;99352.88;;;8.11;74.22
12203;BME280;6164;42.178;24.622;2023-04-05T12:57:26;99335.16;;;8.13;75.21
12203;BME280;6164;42.178;24.622;2023-04-05T12:59:53;99334.66;;;8.18;74.90
12203;BME280;6164;42.178;24.622;2023-04-05T13:02:19;99338.13;;;8.18;73.77
12203;BME280;6164;42.178;24.622;2023-04-05T13:04:46;99340.66;;;8.28;75.14
12203;BME280;6164;42.178;24.622;2023-04-05T13:07:13;99327.03;;;8.40;74.77
12203;BME280;6164;42.178;24.622;2023-04-05T13:09:41;99337.25;;;8.35;73.80
12203;BME280;6164;42.178;24.622;2023-04-05T13:12:07;99336.75;;;8.40;73.24
12203;BME280;6164;42.178;24.622;2023-04-05T13:14:34;99340.53;;;8.45;73.35
12203;BME280;6164;42.178;24.622;2023-04-05T13:17:00;99322.16;;;8.53;73.32